sensor_id;sensor_type;location;lat;lon;timestamp;pressure;altitude;pressure_sealevel;temperature;humidity
77325;BME280;66387;53.440;10.390;2023-02-28T00:00:12;102484.56;;;1.07;75.04
77325;BME280;66387;53.440;10.390;2023-02-28T00:02:39;102491.47;;;0.93;74.96
77325;BME280;66387;53.440;10.390;2023-02-28T00:05:07;102482.66;;;0.88;74.80
77325;BME280;66387;53.440;10.390;2023-02-28T00:07:32;102484.59;;;0.92;75.21
77325;BME280;66387;53.440;10.390;2023-02-28T00:09:58;102484.44;;;0.89;74.50
77325;BME280;66387;53.440;10.390;2023-02-28T00:12:23;102478.88;;;0.81;74.72
77325;BME280;66387;53.440;10.390;2023-02-28T00:14:49;102477.78;;;0.76;74.61
77325;BME280;66387;53.440;10.390;2023-02-28T00:17:17;102479.50;;;0.77;74.59
77325;BME280;66387;53.440;10.390;2023-02-28T00:19:45;102475.91;;;0.74;74.52
77325;BME280;66387;53.440;10.390;2023-02-28T00:22:11;102485.97;;;0.56;75.25
77325;BME280;66387;53.440;10.390;2023-02-28T00:24:36;102483.34;;;0.55;74.91
77325;BME280;66387;53.440;10.390;2023-02-28T00:27:01;102487.81;;;0.44;75.78
77325;BME280;66387;53.440;10.390;2023-02-28T00:29:27;102481.66;;;0.40;75.99
77325;BME280;66387;53.440;10.390;2023-02-28T00:31:52;102489.50;;;0.43;75.94
77325;BME280;66387;53.440;10.390;2023-02-28T00:34:17;102490.81;;;0.37;75.88
77325;BME280;66387;53.440;10.390;2023-02-28T00:36:42;102491.69;;;0.37;75.97
77325;BME280;66387;53.440;10.390;2023-02-28T00:39:11;102487.03;;;0.30;76.17
77325;BME280;66387;53.440;10.390;2023-02-28T00:41:36;102484.41;;;0.29;75.80
77325;BME280;66387;53.440;10.390;2023-02-28T00:44:01;102485.00;;;0.25;75.60
77325;BME280;66387;53.440;10.390;2023-02-28T00:46:26;102494.84;;;0.19;76.23
77325;BME280;66387;53.440;10.390;2023-02-28T00:48:52;102495.22;;;0.10;75.78
77325;BME280;66387;53.440;10.390;2023-02-28T00:51:17;102490.59;;;0.05;76.30
77325;BME280;66387;53.440;10.390;2023-02-28T00:53:42;102501.72;;;0.05;76.08
77325;BME280;66387;53.440;10.390;2023-02-28T00:56:07;102501.88;;;0.08;76.27
77325;BME280;66387;53.440;10.390;2023-02-28T00:58:33;102500.13;;;0.07;76.07
77325;BME280;66387;53.440;10.390;2023-02-28T01:00:58;102497.81;;;-0.03;76.55
77325;BME280;66387;53.440;10.390;2023-02-28T01:03:23;102500.34;;;-0.03;76.87
77325;BME280;66387;53.440;10.390;2023-02-28T01:05:49;102504.88;;;0.01;75.95
77325;BME280;66387;53.440;10.390;2023-02-28T01:08:15;102503.81;;;-0.03;76.23
77325;BME280;66387;53.440;10.390;2023-02-28T01:10:40;102494.47;;;-0.02;76.22
77325;BME280;66387;53.440;10.390;2023-02-28T01:13:06;102503.13;;;0.00;76.52
77325;BME280;66387;53.440;10.390;2023-02-28T01:15:31;102496.44;;;0.02;76.16
77325;BME280;66387;53.440;10.390;2023-02-28T01:17:57;102504.19;;;0.04;75.66
77325;BME280;66387;53.440;10.390;2023-02-28T01:20:22;102502.91;;;-0.03;76.20
77325;BME280;66387;53.440;10.390;2023-02-28T01:22:48;102494.31;;;-0.05;76.38
77325;BME280;66387;53.440;10.390;2023-02-28T01:25:13;102501.38;;;-0.14;76.12
77325;BME280;66387;53.440;10.390;2023-02-28T01:27:38;102500.25;;;-0.19;76.58
77325;BME280;66387;53.440;10.390;2023-02-28T01:30:05;102496.72;;;-0.21;76.25
77325;BME280;66387;53.440;10.390;2023-02-28T01:32:31;102496.72;;;-0.21;77.01
77325;BME280;66387;53.440;10.390;2023-02-28T01:34:56;102498.03;;;-0.28;76.80
77325;BME280;66387;53.440;10.390;2023-02-28T01:37:21;102495.41;;;-0.29;76.71
77325;BME280;66387;53.440;10.390;2023-02-28T01:39:47;102494.72;;;-0.40;76.66
77325;BME280;66387;53.440;10.390;2023-02-28T01:42:12;102488.06;;;-0.38;77.02
77325;BME280;66387;53.440;10.390;2023-02-28T01:44:59;102489.91;;;-0.35;76.89
77325;BME280;66387;53.440;10.390;2023-02-28T01:47:28;102492.16;;;-0.40;76.73
77325;BME280;66387;53.440;10.390;2023-02-28T01:49:54;102488.53;;;-0.43;76.89
77325;BME280;66387;53.440;10.390;2023-02-28T01:52:19;102490.31;;;-0.42;76.60
77325;BME280;66387;53.440;10.390;2023-02-28T01:54:50;102492.97;;;-0.41;77.23
77325;BME280;66387;53.440;10.390;2023-02-28T01:57:18;102483.44;;;-0.43;76.58
77325;BME280;66387;53.440;10.390;2023-02-28T02:00:12;102490.25;;;-0.44;76.65
77325;BME280;66387;53.440;10.390;2023-02-28T02:02:42;102497.00;;;-0.44;76.94
77325;BME280;66387;53.440;10.390;2023-02-28T02:05:15;102490.91;;;-0.46;76.83
77325;BME280;66387;53.440;10.390;2023-02-28T02:07:43;102488.19;;;-0.50;77.07
77325;BME280;66387;53.440;10.390;2023-02-28T02:10:11;102492.09;;;-0.55;77.16
77325;BME280;66387;53.440;10.390;2023-02-28T02:15:34;102492.97;;;-0.82;78.33
77325;BME280;66387;53.440;10.390;2023-02-28T02:18:08;102496.50;;;-0.93;78.42
77325;BME280;66387;53.440;10.390;2023-02-28T02:20:43;102485.13;;;-0.98;79.03
77325;BME280;66387;53.440;10.390;2023-02-28T02:26:20;102490.44;;;-0.95;79.02
77325;BME280;66387;53.440;10.390;2023-02-28T02:29:04;102491.41;;;-0.93;79.19
77325;BME280;66387;53.440;10.390;2023-02-28T02:37:31;102492.78;;;-0.98;78.63
77325;BME280;66387;53.440;10.390;2023-02-28T02:42:36;102491.22;;;-0.96;78.98
77325;BME280;66387;53.440;10.390;2023-02-28T02:45:12;102492.78;;;-0.98;78.01
77325;BME280;66387;53.440;10.390;2023-02-28T02:47:40;102488.38;;;-1.01;78.51
77325;BME280;66387;53.440;10.390;2023-02-28T02:50:12;102498.75;;;-0.98;78.10
77325;BME280;66387;53.440;10.390;2023-02-28T02:52:42;102488.28;;;-1.02;78.01
77325;BME280;66387;53.440;10.390;2023-02-28T02:55:11;102488.19;;;-1.04;77.83
77325;BME280;66387;53.440;10.390;2023-02-28T02:57:49;102484.56;;;-1.07;78.02
77325;BME280;66387;53.440;10.390;2023-02-28T03:00:20;102486.34;;;-1.06;78.30
77325;BME280;66387;53.440;10.390;2023-02-28T03:02:49;102488.06;;;-1.05;77.94
77325;BME280;66387;53.440;10.390;2023-02-28T03:05:30;102489.47;;;-1.10;78.33
77325;BME280;66387;53.440;10.390;2023-02-28T03:07:58;102477.50;;;-1.11;78.64
77325;BME280;66387;53.440;10.390;2023-02-28T03:10:28;102476.16;;;-1.06;78.23
77325;BME280;66387;53.440;10.390;2023-02-28T03:13:04;102469.47;;;-1.04;78.64
77325;BME280;66387;53.440;10.390;2023-02-28T03:15:46;102476.41;;;-1.02;78.10
77325;BME280;66387;53.440;10.390;2023-02-28T03:18:49;102478.09;;;-1.02;78.09
77325;BME280;66387;53.440;10.390;2023-02-28T03:24:49;102484.25;;;-1.12;78.42
77325;BME280;66387;53.440;10.390;2023-02-28T03:26:55;102493.31;;;-1.17;78.77
77325;BME280;66387;53.440;10.390;2023-02-28T03:29:34;102480.47;;;-1.31;78.54
77325;BME280;66387;53.440;10.390;2023-02-28T03:32:24;102484.94;;;-1.27;78.79
77325;BME280;66387;53.440;10.390;2023-02-28T03:35:01;102492.50;;;-1.16;78.87
77325;BME280;66387;53.440;10.390;2023-02-28T03:37:31;102489.66;;;-1.07;78.80
77325;BME280;66387;53.440;10.390;2023-02-28T03:40:08;102498.00;;;-1.10;77.95
77325;BME280;66387;53.440;10.390;2023-02-28T03:42:38;102495.22;;;-1.13;78.37
77325;BME280;66387;53.440;10.390;2023-02-28T03:45:11;102493.97;;;-1.19;78.00
77325;BME280;66387;53.440;10.390;2023-02-28T03:51:02;102500.84;;;-1.18;78.37
77325;BME280;66387;53.440;10.390;2023-02-28T03:53:32;102504.34;;;-1.29;77.81
77325;BME280;66387;53.440;10.390;2023-02-28T03:56:13;102510.91;;;-1.33;78.64
77325;BME280;66387;53.440;10.390;2023-02-28T04:01:13;102499.06;;;-1.32;78.67
77325;BME280;66387;53.440;10.390;2023-02-28T04:03:41;102495.91;;;-1.41;78.70
77325;BME280;66387;53.440;10.390;2023-02-28T04:06:08;102494.56;;;-1.50;78.51
77325;BME280;66387;53.440;10.390;2023-02-28T04:08:38;102499.22;;;-1.56;78.62
77325;BME280;66387;53.440;10.390;2023-02-28T04:11:06;102494.91;;;-1.57;78.45
77325;BME280;66387;53.440;10.390;2023-02-28T04:13:37;102510.00;;;-1.60;78.54
77325;BME280;66387;53.440;10.390;2023-02-28T04:16:06;102513.34;;;-1.61;79.29
77325;BME280;66387;53.440;10.390;2023-02-28T04:18:39;102515.00;;;-1.61;78.64
77325;BME280;66387;53.440;10.390;2023-02-28T04:21:05;102515.97;;;-1.59;79.30
77325;BME280;66387;53.440;10.390;2023-02-28T04:23:31;102490.88;;;-1.66;79.12
77325;BME280;66387;53.440;10.390;2023-02-28T04:25:56;102504.91;;;-1.60;78.53
77325;BME280;66387;53.440;10.390;2023-02-28T04:28:21;102507.81;;;-1.67;79.26
77325;BME280;66387;53.440;10.390;2023-02-28T04:30:47;102508.56;;;-1.81;79.50
77325;BME280;66387;53.440;10.390;2023-02-28T04:33:12;102493.69;;;-1.75;79.53
77325;BME280;66387;53.440;10.390;2023-02-28T04:35:37;102500.56;;;-1.74;79.02
77325;BME280;66387;53.440;10.390;2023-02-28T04:38:03;102503.03;;;-1.75;79.04
77325;BME280;66387;53.440;10.390;2023-02-28T04:40:28;102497.03;;;-1.76;78.68
77325;BME280;66387;53.440;10.390;2023-02-28T04:42:53;102499.69;;;-1.74;79.07
77325;BME280;66387;53.440;10.390;2023-02-28T04:45:19;102507.63;;;-1.70;79.51
77325;BME280;66387;53.440;10.390;2023-02-28T04:47:44;102513.22;;;-1.75;78.76
77325;BME280;66387;53.440;10.390;2023-02-28T04:50:09;102506.16;;;-1.79;78.65
77325;BME280;66387;53.440;10.390;2023-02-28T04:52:35;102501.31;;;-1.88;78.96
77325;BME280;66387;53.440;10.390;2023-02-28T04:55:00;102507.50;;;-1.84;79.52
77325;BME280;66387;53.440;10.390;2023-02-28T04:57:25;102507.41;;;-1.86;79.10
77325;BME280;66387;53.440;10.390;2023-02-28T04:59:50;102507.41;;;-1.86;78.78
77325;BME280;66387;53.440;10.390;2023-02-28T05:02:16;102511.81;;;-1.83;79.38
77325;BME280;66387;53.440;10.390;2023-02-28T05:04:41;102506.59;;;-1.85;79.04
77325;BME280;66387;53.440;10.390;2023-02-28T05:07:06;102509.06;;;-1.86;79.70
77325;BME280;66387;53.440;10.390;2023-02-28T05:09:31;102512.91;;;-1.80;79.89
77325;BME280;66387;53.440;10.390;2023-02-28T05:11:58;102505.84;;;-1.84;79.09
77325;BME280;66387;53.440;10.390;2023-02-28T05:14:23;102504.75;;;-1.87;79.03
77325;BME280;66387;53.440;10.390;2023-02-28T05:16:48;102518.34;;;-1.87;79.72
77325;BME280;66387;53.440;10.390;2023-02-28T05:19:14;102514.81;;;-1.89;79.38
77325;BME280;66387;53.440;10.390;2023-02-28T05:21:50;102514.22;;;-1.98;79.36
77325;BME280;66387;53.440;10.390;2023-02-28T05:24:16;102517.53;;;-1.99;79.07
77325;BME280;66387;53.440;10.390;2023-02-28T05:26:47;102519.28;;;-1.98;79.66
77325;BME280;66387;53.440;10.390;2023-02-28T05:29:13;102513.56;;;-2.07;78.70
77325;BME280;66387;53.440;10.390;2023-02-28T05:31:38;102525.72;;;-2.03;79.82
77325;BME280;66387;53.440;10.390;2023-02-28T05:34:04;102525.63;;;-2.05;79.75
77325;BME280;66387;53.440;10.390;2023-02-28T05:36:29;102518.91;;;-2.04;79.22
77325;BME280;66387;53.440;10.390;2023-02-28T05:38:54;102523.97;;;-2.04;79.04
77325;BME280;66387;53.440;10.390;2023-02-28T05:41:20;102523.28;;;-2.02;79.37
77325;BME280;66387;53.440;10.390;2023-02-28T05:43:46;102528.38;;;-2.02;79.46
77325;BME280;66387;53.440;10.390;2023-02-28T05:46:12;102525.84;;;-2.02;79.71
77325;BME280;66387;53.440;10.390;2023-02-28T05:48:39;102525.16;;;-1.99;79.42
77325;BME280;66387;53.440;10.390;2023-02-28T05:51:06;102529.06;;;-2.04;79.67
77325;BME280;66387;53.440;10.390;2023-02-28T05:53:32;102528.63;;;-2.10;79.68
77325;BME280;66387;53.440;10.390;2023-02-28T05:55:57;102525.69;;;-2.16;79.32
77325;BME280;66387;53.440;10.390;2023-02-28T05:58:23;102530.09;;;-2.14;79.39
77325;BME280;66387;53.440;10.390;2023-02-28T06:00:50;102538.59;;;-2.13;79.29
77325;BME280;66387;53.440;10.390;2023-02-28T06:03:15;102537.16;;;-2.10;79.16
77325;BME280;66387;53.440;10.390;2023-02-28T06:05:41;102540.38;;;-2.12;79.14
77325;BME280;66387;53.440;10.390;2023-02-28T06:08:06;102541.25;;;-2.12;79.23
77325;BME280;66387;53.440;10.390;2023-02-28T06:10:33;102536.81;;;-2.14;79.67
77325;BME280;66387;53.440;10.390;2023-02-28T06:13:03;102529.75;;;-2.18;79.51
77325;BME280;66387;53.440;10.390;2023-02-28T06:15:29;102536.63;;;-2.17;79.68
77325;BME280;66387;53.440;10.390;2023-02-28T06:17:54;102532.44;;;-2.17;79.68
77325;BME280;66387;53.440;10.390;2023-02-28T06:20:22;102530.00;;;-2.15;78.86
77325;BME280;66387;53.440;10.390;2023-02-28T06:22:47;102541.16;;;-2.13;79.18
77325;BME280;66387;53.440;10.390;2023-02-28T06:25:13;102544.09;;;-2.07;79.22
77325;BME280;66387;53.440;10.390;2023-02-28T06:27:38;102549.19;;;-2.07;79.09
77325;BME280;66387;53.440;10.390;2023-02-28T06:30:04;102543.91;;;-2.10;79.12
77325;BME280;66387;53.440;10.390;2023-02-28T06:32:29;102545.09;;;-2.05;79.88
77325;BME280;66387;53.440;10.390;2023-02-28T06:34:54;102552.63;;;-2.07;79.36
77325;BME280;66387;53.440;10.390;2023-02-28T06:37:19;102554.28;;;-2.07;79.38
77325;BME280;66387;53.440;10.390;2023-02-28T06:39:45;102549.44;;;-2.04;79.71
77325;BME280;66387;53.440;10.390;2023-02-28T06:42:10;102551.72;;;-2.07;79.55
77325;BME280;66387;53.440;10.390;2023-02-28T06:44:35;102563.56;;;-2.08;79.99
77325;BME280;66387;53.440;10.390;2023-02-28T06:47:02;102556.16;;;-2.05;79.83
77325;BME280;66387;53.440;10.390;2023-02-28T06:49:29;102559.59;;;-2.04;79.90
77325;BME280;66387;53.440;10.390;2023-02-28T06:51:54;102558.22;;;-1.99;80.19
77325;BME280;66387;53.440;10.390;2023-02-28T06:54:20;102559.53;;;-1.92;79.71
77325;BME280;66387;53.440;10.390;2023-02-28T06:56:45;102557.31;;;-1.88;79.76
77325;BME280;66387;53.440;10.390;2023-02-28T06:59:12;102560.84;;;-1.86;79.50
77325;BME280;66387;53.440;10.390;2023-02-28T07:01:37;102558.31;;;-1.86;80.22
77325;BME280;66387;53.440;10.390;2023-02-28T07:04:04;102566.78;;;-1.85;80.44
77325;BME280;66387;53.440;10.390;2023-02-28T07:06:30;102569.63;;;-1.94;81.13
77325;BME280;66387;53.440;10.390;2023-02-28T07:08:56;102569.13;;;-1.64;84.24
77325;BME280;66387;53.440;10.390;2023-02-28T07:11:23;102568.22;;;-1.77;81.22
77325;BME280;66387;53.440;10.390;2023-02-28T07:13:50;102570.31;;;-1.72;82.04
77325;BME280;66387;53.440;10.390;2023-02-28T07:16:16;102568.72;;;-1.70;81.41
77325;BME280;66387;53.440;10.390;2023-02-28T07:18:41;102576.00;;;-1.63;81.34
77325;BME280;66387;53.440;10.390;2023-02-28T07:21:08;102562.88;;;-1.56;81.24
77325;BME280;66387;53.440;10.390;2023-02-28T07:23:34;102576.44;;;-1.43;80.56
77325;BME280;66387;53.440;10.390;2023-02-28T07:26:00;102568.88;;;-1.42;81.01
77325;BME280;66387;53.440;10.390;2023-02-28T07:28:26;102577.16;;;-1.33;80.47
77325;BME280;66387;53.440;10.390;2023-02-28T07:30:51;102566.50;;;-1.14;80.67
77325;BME280;66387;53.440;10.390;2023-02-28T07:33:17;102569.03;;;-1.01;81.29
77325;BME280;66387;53.440;10.390;2023-02-28T07:35:43;102571.69;;;-0.86;81.24
77325;BME280;66387;53.440;10.390;2023-02-28T07:38:08;102575.94;;;-0.74;80.93
77325;BME280;66387;53.440;10.390;2023-02-28T07:40:35;102577.31;;;-0.66;81.49
77325;BME280;66387;53.440;10.390;2023-02-28T07:43:01;102583.75;;;-0.58;80.78
77325;BME280;66387;53.440;10.390;2023-02-28T07:45:27;102577.56;;;-0.48;81.04
77325;BME280;66387;53.440;10.390;2023-02-28T07:47:54;102572.72;;;-0.43;81.42
77325;BME280;66387;53.440;10.390;2023-02-28T07:50:20;102581.16;;;-0.31;81.50
77325;BME280;66387;53.440;10.390;2023-02-28T07:52:45;102577.22;;;-0.26;80.88
77325;BME280;66387;53.440;10.390;2023-02-28T07:55:10;102583.19;;;-0.13;80.15
77325;BME280;66387;53.440;10.390;2023-02-28T07:57:36;102567.53;;;-0.04;80.03
77325;BME280;66387;53.440;10.390;2023-02-28T08:00:04;102572.41;;;0.06;79.67
77325;BME280;66387;53.440;10.390;2023-02-28T08:02:30;102577.09;;;0.13;79.56
77325;BME280;66387;53.440;10.390;2023-02-28T08:04:55;102575.50;;;0.15;79.19
77325;BME280;66387;53.440;10.390;2023-02-28T08:07:21;102579.69;;;0.28;79.14
77325;BME280;66387;53.440;10.390;2023-02-28T08:09:46;102578.38;;;0.34;78.63
77325;BME280;66387;53.440;10.390;2023-02-28T08:12:11;102570.44;;;0.44;78.12
77325;BME280;66387;53.440;10.390;2023-02-28T08:14:37;102582.63;;;0.48;78.34
77325;BME280;66387;53.440;10.390;2023-02-28T08:17:02;102573.13;;;0.61;77.68
77325;BME280;66387;53.440;10.390;2023-02-28T08:19:28;102582.13;;;0.69;77.36
77325;BME280;66387;53.440;10.390;2023-02-28T08:21:54;102583.63;;;0.80;77.16
77325;BME280;66387;53.440;10.390;2023-02-28T08:24:19;102579.81;;;0.88;76.84
77325;BME280;66387;53.440;10.390;2023-02-28T08:26:45;102582.47;;;1.04;78.03
77325;BME280;66387;53.440;10.390;2023-02-28T08:29:10;102586.50;;;1.15;77.58
77325;BME280;66387;53.440;10.390;2023-02-28T08:31:35;102587.88;;;1.25;76.58
77325;BME280;66387;53.440;10.390;2023-02-28T08:34:08;102582.75;;;1.39;75.82
77325;BME280;66387;53.440;10.390;2023-02-28T08:36:34;102588.03;;;1.42;76.04
77325;BME280;66387;53.440;10.390;2023-02-28T08:38:59;102588.72;;;1.55;75.76
77325;BME280;66387;53.440;10.390;2023-02-28T08:41:25;102593.38;;;1.62;75.20
77325;BME280;66387;53.440;10.390;2023-02-28T08:43:50;102595.38;;;1.67;75.48
77325;BME280;66387;53.440;10.390;2023-02-28T08:46:16;102594.09;;;1.75;73.52
77325;BME280;66387;53.440;10.390;2023-02-28T08:48:41;102596.91;;;1.80;72.52
77325;BME280;66387;53.440;10.390;2023-02-28T08:51:09;102594.03;;;1.90;72.18
77325;BME280;66387;53.440;10.390;2023-02-28T08:53:35;102595.28;;;1.96;71.41
77325;BME280;66387;53.440;10.390;2023-02-28T08:56:03;102596.47;;;2.03;70.53
77325;BME280;66387;53.440;10.390;2023-02-28T08:58:29;102597.97;;;2.16;68.82
77325;BME280;66387;53.440;10.390;2023-02-28T09:00:55;102591.19;;;2.32;68.45
77325;BME280;66387;53.440;10.390;2023-02-28T09:03:21;102591.00;;;2.45;67.78
77325;BME280;66387;53.440;10.390;2023-02-28T09:05:54;102604.59;;;2.61;66.57
77325;BME280;66387;53.440;10.390;2023-02-28T09:08:19;102604.59;;;2.61;67.37
77325;BME280;66387;53.440;10.390;2023-02-28T09:10:45;102596.28;;;2.65;64.72
77325;BME280;66387;53.440;10.390;2023-02-28T09:13:10;102596.41;;;2.84;65.48
77325;BME280;66387;53.440;10.390;2023-02-28T09:15:37;102592.63;;;2.77;62.96
77325;BME280;66387;53.440;10.390;2023-02-28T09:18:03;102593.63;;;2.97;62.53
77325;BME280;66387;53.440;10.390;2023-02-28T09:20:28;102605.66;;;3.16;61.27
77325;BME280;66387;53.440;10.390;2023-02-28T09:22:53;102596.50;;;3.38;63.33
77325;BME280;66387;53.440;10.390;2023-02-28T09:25:19;102605.00;;;3.55;61.67
77325;BME280;66387;53.440;10.390;2023-02-28T09:27:44;102603.06;;;3.69;59.65
77325;BME280;66387;53.440;10.390;2023-02-28T09:30:11;102601.03;;;3.62;59.39
77325;BME280;66387;53.440;10.390;2023-02-28T09:32:36;102602.09;;;3.84;58.20
77325;BME280;66387;53.440;10.390;2023-02-28T09:35:01;102605.19;;;3.77;58.69
77325;BME280;66387;53.440;10.390;2023-02-28T09:37:27;102593.50;;;3.84;59.50
77325;BME280;66387;53.440;10.390;2023-02-28T09:39:55;102601.19;;;3.84;54.37
77325;BME280;66387;53.440;10.390;2023-02-28T09:42:25;102607.53;;;4.10;54.65
77325;BME280;66387;53.440;10.390;2023-02-28T09:44:54;102609.97;;;4.07;55.51
77325;BME280;66387;53.440;10.390;2023-02-28T09:47:31;102608.97;;;4.22;54.92
77325;BME280;66387;53.440;10.390;2023-02-28T09:50:15;102607.88;;;4.36;56.51
77325;BME280;66387;53.440;10.390;2023-02-28T09:52:45;102607.19;;;4.40;54.85
77325;BME280;66387;53.440;10.390;2023-02-28T09:55:24;102616.31;;;4.53;54.42
77325;BME280;66387;53.440;10.390;2023-02-28T09:57:54;102604.56;;;4.39;50.59
77325;BME280;66387;53.440;10.390;2023-02-28T10:00:30;102610.56;;;4.59;53.33
77325;BME280;66387;53.440;10.390;2023-02-28T10:03:20;102609.00;;;4.62;53.16
77325;BME280;66387;53.440;10.390;2023-02-28T10:06:07;102610.38;;;4.75;52.67
77325;BME280;66387;53.440;10.390;2023-02-28T10:08:38;102613.69;;;5.12;50.09
77325;BME280;66387;53.440;10.390;2023-02-28T10:11:10;102616.88;;;5.27;52.49
77325;BME280;66387;53.440;10.390;2023-02-28T10:16:31;102612.38;;;5.87;51.00
77325;BME280;66387;53.440;10.390;2023-02-28T10:21:47;102617.66;;;6.85;47.02
77325;BME280;66387;53.440;10.390;2023-02-28T10:24:28;102605.41;;;7.58;44.33
77325;BME280;66387;53.440;10.390;2023-02-28T10:26:59;102603.16;;;7.97;43.20
77325;BME280;66387;53.440;10.390;2023-02-28T10:29:24;102607.97;;;7.57;43.20
77325;BME280;66387;53.440;10.390;2023-02-28T10:31:50;102600.75;;;7.75;43.44
77325;BME280;66387;53.440;10.390;2023-02-28T10:34:15;102599.06;;;8.35;41.48
77325;BME280;66387;53.440;10.390;2023-02-28T10:36:41;102595.28;;;8.54;40.95
77325;BME280;66387;53.440;10.390;2023-02-28T10:39:34;102603.47;;;8.08;41.27
77325;BME280;66387;53.440;10.390;2023-02-28T10:42:00;102600.97;;;8.41;41.26
77325;BME280;66387;53.440;10.390;2023-02-28T10:44:26;102602.28;;;7.97;42.22
77325;BME280;66387;53.440;10.390;2023-02-28T10:46:51;102599.03;;;8.65;41.32
77325;BME280;66387;53.440;10.390;2023-02-28T10:49:20;102599.97;;;8.67;42.32
77325;BME280;66387;53.440;10.390;2023-02-28T10:51:49;102590.53;;;9.03;41.14
77325;BME280;66387;53.440;10.390;2023-02-28T10:57:16;102595.16;;;9.16;40.19
77325;BME280;66387;53.440;10.390;2023-02-28T10:59:42;102591.69;;;9.16;40.08
77325;BME280;66387;53.440;10.390;2023-02-28T11:02:34;102598.78;;;9.99;39.61
77325;BME280;66387;53.440;10.390;2023-02-28T11:04:59;102598.34;;;9.41;39.12
77325;BME280;66387;53.440;10.390;2023-02-28T11:07:25;102607.22;;;10.29;38.29
77325;BME280;66387;53.440;10.390;2023-02-28T11:09:55;102606.03;;;10.57;38.51
77325;BME280;66387;53.440;10.390;2023-02-28T11:12:53;102603.44;;;9.75;38.90
77325;BME280;66387;53.440;10.390;2023-02-28T11:15:27;102607.75;;;9.01;40.65
77325;BME280;66387;53.440;10.390;2023-02-28T11:17:54;102605.56;;;8.51;40.94
77325;BME280;66387;53.440;10.390;2023-02-28T11:20:23;102611.84;;;8.93;40.98
77325;BME280;66387;53.440;10.390;2023-02-28T11:22:54;102605.66;;;9.58;41.57
77325;BME280;66387;53.440;10.390;2023-02-28T11:25:35;102607.72;;;10.13;40.67
77325;BME280;66387;53.440;10.390;2023-02-28T11:28:08;102602.88;;;10.28;40.40
77325;BME280;66387;53.440;10.390;2023-02-28T11:31:00;102591.69;;;10.77;38.67
77325;BME280;66387;53.440;10.390;2023-02-28T11:33:27;102591.47;;;11.16;38.33
77325;BME280;66387;53.440;10.390;2023-02-28T11:35:55;102595.06;;;11.26;38.38
77325;BME280;66387;53.440;10.390;2023-02-28T11:38:25;102598.38;;;10.65;38.34
77325;BME280;66387;53.440;10.390;2023-02-28T11:43:53;102587.72;;;10.99;38.68
77325;BME280;66387;53.440;10.390;2023-02-28T11:52:05;102588.22;;;10.77;38.17
77325;BME280;66387;53.440;10.390;2023-02-28T11:54:35;102580.78;;;10.07;39.67
77325;BME280;66387;53.440;10.390;2023-02-28T11:57:16;102581.31;;;10.32;38.46
77325;BME280;66387;53.440;10.390;2023-02-28T11:59:57;102570.16;;;10.37;38.87
77325;BME280;66387;53.440;10.390;2023-02-28T12:02:42;102567.09;;;10.59;37.64
77325;BME280;66387;53.440;10.390;2023-02-28T12:05:38;102561.63;;;10.44;37.34
77325;BME280;66387;53.440;10.390;2023-02-28T12:20:02;102551.47;;;10.56;37.69
77325;BME280;66387;53.440;10.390;2023-02-28T12:23:19;102541.97;;;11.09;35.34
77325;BME280;66387;53.440;10.390;2023-02-28T12:25:48;102540.75;;;11.43;34.91
77325;BME280;66387;53.440;10.390;2023-02-28T12:28:18;102534.47;;;11.30;33.90
77325;BME280;66387;53.440;10.390;2023-02-28T12:30:56;102528.53;;;11.39;35.57
77325;BME280;66387;53.440;10.390;2023-02-28T12:33:27;102524.88;;;11.88;34.14
77325;BME280;66387;53.440;10.390;2023-02-28T12:35:57;102514.56;;;11.95;34.69
77325;BME280;66387;53.440;10.390;2023-02-28T12:38:27;102527.75;;;12.10;35.18
77325;BME280;66387;53.440;10.390;2023-02-28T12:41:05;102523.34;;;12.02;35.58
77325;BME280;66387;53.440;10.390;2023-02-28T12:43:40;102512.03;;;11.35;33.66
77325;BME280;66387;53.440;10.390;2023-02-28T12:46:14;102512.69;;;11.20;32.34
77325;BME280;66387;53.440;10.390;2023-02-28T12:48:45;102504.66;;;11.67;33.25
77325;BME280;66387;53.440;10.390;2023-02-28T12:51:13;102503.97;;;12.63;34.40
77325;BME280;66387;53.440;10.390;2023-02-28T12:53:53;102498.91;;;12.81;33.60
77325;BME280;66387;53.440;10.390;2023-02-28T12:57:01;102502.53;;;13.01;33.72
77325;BME280;66387;53.440;10.390;2023-02-28T13:10:39;102467.09;;;12.20;33.48
77325;BME280;66387;53.440;10.390;2023-02-28T13:13:06;102457.06;;;12.60;32.17
77325;BME280;66387;53.440;10.390;2023-02-28T13:15:31;102461.59;;;12.90;32.20
77325;BME280;66387;53.440;10.390;2023-02-28T13:18:00;102450.97;;;12.61;32.43
77325;BME280;66387;53.440;10.390;2023-02-28T13:20:35;102456.94;;;12.48;31.70
77325;BME280;66387;53.440;10.390;2023-02-28T13:23:01;102462.13;;;12.42;31.69
77325;BME280;66387;53.440;10.390;2023-02-28T13:27:57;102464.03;;;12.64;32.66
77325;BME280;66387;53.440;10.390;2023-02-28T13:38:56;102470.41;;;13.08;31.24
77325;BME280;66387;53.440;10.390;2023-02-28T13:52:17;102458.34;;;13.22;29.35
77325;BME280;66387;53.440;10.390;2023-02-28T14:03:10;102466.34;;;13.53;29.64
77325;BME280;66387;53.440;10.390;2023-02-28T14:05:40;102460.28;;;13.58;29.82
77325;BME280;66387;53.440;10.390;2023-02-28T14:08:12;102462.34;;;12.72;30.84
77325;BME280;66387;53.440;10.390;2023-02-28T14:10:44;102461.44;;;12.68;29.74
77325;BME280;66387;53.440;10.390;2023-02-28T14:13:17;102466.78;;;12.87;29.80
77325;BME280;66387;53.440;10.390;2023-02-28T14:16:00;102460.22;;;13.46;30.17
77325;BME280;66387;53.440;10.390;2023-02-28T14:18:37;102466.84;;;12.94;30.07
77325;BME280;66387;53.440;10.390;2023-02-28T14:21:21;102468.09;;;13.60;29.38
77325;BME280;66387;53.440;10.390;2023-02-28T14:32:43;102467.75;;;12.99;29.03
77325;BME280;66387;53.440;10.390;2023-02-28T14:37:52;102464.63;;;13.55;29.12